sensor_id;sensor_type;location;lat;lon;timestamp;P1;durP1;ratioP1;P2;durP2;ratioP2
61897;SDS011;47850;50.274;18.908;2022-07-22T00:00:54;4.90;;;3.20;;
61897;SDS011;47850;50.274;18.908;2022-07-22T00:03:20;10.30;;;3.50;;
61897;SDS011;47850;50.274;18.908;2022-07-22T00:05:47;9.30;;;3.60;;
61897;SDS011;47850;50.274;18.908;2022-07-22T00:08:13;9.10;;;3.70;;
61897;SDS011;47850;50.274;18.908;2022-07-22T00:10:40;7.00;;;3.30;;
61897;SDS011;47850;50.274;18.908;2022-07-22T00:13:07;7.10;;;3.20;;
61897;SDS011;47850;50.274;18.908;2022-07-22T00:15:34;8.10;;;3.40;;
61897;SDS011;47850;50.274;18.908;2022-07-22T00:18:00;13.20;;;5.50;;
61897;SDS011;47850;50.274;18.908;2022-07-22T00:20:27;17.00;;;5.00;;
61897;SDS011;47850;50.274;18.908;2022-07-22T00:22:54;37.60;;;12.90;;
61897;SDS011;47850;50.274;18.908;2022-07-22T00:25:21;16.60;;;5.80;;
61897;SDS011;47850;50.274;18.908;2022-07-22T00:27:48;14.10;;;6.10;;
61897;SDS011;47850;50.274;18.908;2022-07-22T00:30:14;22.70;;;7.00;;
61897;SDS011;47850;50.274;18.908;2022-07-22T00:32:41;20.70;;;7.30;;
61897;SDS011;47850;50.274;18.908;2022-07-22T00:35:08;26.10;;;9.70;;
61897;SDS011;47850;50.274;18.908;2022-07-22T00:37:34;17.40;;;7.80;;
61897;SDS011;47850;50.274;18.908;2022-07-22T00:40:01;15.50;;;6.20;;
61897;SDS011;47850;50.274;18.908;2022-07-22T00:42:29;13.60;;;5.00;;
61897;SDS011;47850;50.274;18.908;2022-07-22T00:44:55;13.30;;;5.90;;
61897;SDS011;47850;50.274;18.908;2022-07-22T00:47:22;26.80;;;9.70;;
61897;SDS011;47850;50.274;18.908;2022-07-22T00:49:49;34.10;;;13.00;;
61897;SDS011;47850;50.274;18.908;2022-07-22T00:52:17;51.70;;;18.00;;
61897;SDS011;47850;50.274;18.908;2022-07-22T00:54:44;44.80;;;17.00;;
61897;SDS011;47850;50.274;18.908;2022-07-22T00:57:11;33.30;;;13.50;;
61897;SDS011;47850;50.274;18.908;2022-07-22T00:59:38;21.00;;;7.60;;
61897;SDS011;47850;50.274;18.908;2022-07-22T01:02:04;20.90;;;8.40;;
61897;SDS011;47850;50.274;18.908;2022-07-22T01:04:31;17.80;;;6.60;;
61897;SDS011;47850;50.274;18.908;2022-07-22T01:06:58;25.00;;;8.20;;
61897;SDS011;47850;50.274;18.908;2022-07-22T01:09:24;12.40;;;4.70;;
61897;SDS011;47850;50.274;18.908;2022-07-22T01:11:51;20.20;;;9.50;;
61897;SDS011;47850;50.274;18.908;2022-07-22T01:14:17;21.20;;;9.10;;
61897;SDS011;47850;50.274;18.908;2022-07-22T01:16:44;18.00;;;7.70;;
61897;SDS011;47850;50.274;18.908;2022-07-22T01:19:11;30.10;;;10.20;;
61897;SDS011;47850;50.274;18.908;2022-07-22T01:21:37;31.00;;;11.90;;
61897;SDS011;47850;50.274;18.908;2022-07-22T01:24:04;34.50;;;11.40;;
61897;SDS011;47850;50.274;18.908;2022-07-22T01:26:31;28.70;;;10.50;;
61897;SDS011;47850;50.274;18.908;2022-07-22T01:28:59;27.60;;;9.90;;
61897;SDS011;47850;50.274;18.908;2022-07-22T01:31:26;28.40;;;9.00;;
61897;SDS011;47850;50.274;18.908;2022-07-22T01:33:54;22.00;;;9.20;;
61897;SDS011;47850;50.274;18.908;2022-07-22T01:36:21;36.50;;;13.10;;
61897;SDS011;47850;50.274;18.908;2022-07-22T01:38:48;38.50;;;14.70;;
61897;SDS011;47850;50.274;18.908;2022-07-22T01:41:15;37.50;;;13.90;;
61897;SDS011;47850;50.274;18.908;2022-07-22T01:43:42;43.90;;;17.90;;
61897;SDS011;47850;50.274;18.908;2022-07-22T01:46:08;47.60;;;17.00;;
61897;SDS011;47850;50.274;18.908;2022-07-22T01:48:35;46.20;;;15.50;;
61897;SDS011;47850;50.274;18.908;2022-07-22T01:51:02;50.40;;;17.70;;
61897;SDS011;47850;50.274;18.908;2022-07-22T01:53:29;65.20;;;23.10;;
61897;SDS011;47850;50.274;18.908;2022-07-22T01:55:55;61.80;;;20.60;;
61897;SDS011;47850;50.274;18.908;2022-07-22T01:58:22;50.20;;;17.80;;
61897;SDS011;47850;50.274;18.908;2022-07-22T02:00:49;36.10;;;14.20;;
61897;SDS011;47850;50.274;18.908;2022-07-22T02:03:15;25.50;;;8.80;;
61897;SDS011;47850;50.274;18.908;2022-07-22T02:05:42;10.80;;;5.40;;
61897;SDS011;47850;50.274;18.908;2022-07-22T02:08:09;25.90;;;7.80;;
61897;SDS011;47850;50.274;18.908;2022-07-22T02:10:36;11.20;;;5.30;;
61897;SDS011;47850;50.274;18.908;2022-07-22T02:13:04;8.90;;;4.30;;
61897;SDS011;47850;50.274;18.908;2022-07-22T02:15:31;15.90;;;4.80;;
61897;SDS011;47850;50.274;18.908;2022-07-22T02:17:58;17.30;;;5.20;;
61897;SDS011;47850;50.274;18.908;2022-07-22T02:20:24;9.20;;;4.50;;
61897;SDS011;47850;50.274;18.908;2022-07-22T02:22:51;10.00;;;4.50;;
61897;SDS011;47850;50.274;18.908;2022-07-22T02:25:18;11.20;;;4.40;;
61897;SDS011;47850;50.274;18.908;2022-07-22T02:27:44;10.30;;;4.50;;
61897;SDS011;47850;50.274;18.908;2022-07-22T02:30:11;9.80;;;4.20;;
61897;SDS011;47850;50.274;18.908;2022-07-22T02:32:38;11.40;;;4.70;;
61897;SDS011;47850;50.274;18.908;2022-07-22T02:35:05;6.60;;;3.40;;
61897;SDS011;47850;50.274;18.908;2022-07-22T02:37:32;13.30;;;4.70;;
61897;SDS011;47850;50.274;18.908;2022-07-22T02:39:59;10.90;;;5.30;;
61897;SDS011;47850;50.274;18.908;2022-07-22T02:42:25;13.70;;;5.30;;
61897;SDS011;47850;50.274;18.908;2022-07-22T02:44:52;11.90;;;5.40;;
61897;SDS011;47850;50.274;18.908;2022-07-22T02:47:18;11.30;;;5.90;;
61897;SDS011;47850;50.274;18.908;2022-07-22T02:49:45;15.10;;;5.80;;
61897;SDS011;47850;50.274;18.908;2022-07-22T02:52:11;22.90;;;6.30;;
61897;SDS011;47850;50.274;18.908;2022-07-22T02:54:38;17.20;;;6.30;;
61897;SDS011;47850;50.274;18.908;2022-07-22T02:57:04;13.50;;;6.30;;
61897;SDS011;47850;50.274;18.908;2022-07-22T02:59:31;15.60;;;6.80;;
61897;SDS011;47850;50.274;18.908;2022-07-22T03:01:57;13.40;;;5.90;;
61897;SDS011;47850;50.274;18.908;2022-07-22T03:04:24;12.70;;;6.30;;
61897;SDS011;47850;50.274;18.908;2022-07-22T03:06:50;14.90;;;5.80;;
61897;SDS011;47850;50.274;18.908;2022-07-22T03:09:17;9.10;;;6.00;;
61897;SDS011;47850;50.274;18.908;2022-07-22T03:11:44;15.10;;;5.90;;
61897;SDS011;47850;50.274;18.908;2022-07-22T03:14:10;10.80;;;6.30;;
61897;SDS011;47850;50.274;18.908;2022-07-22T03:16:37;15.20;;;6.90;;
61897;SDS011;47850;50.274;18.908;2022-07-22T03:19:04;11.20;;;6.50;;
61897;SDS011;47850;50.274;18.908;2022-07-22T03:21:31;10.20;;;6.40;;
61897;SDS011;47850;50.274;18.908;2022-07-22T03:23:58;9.50;;;5.90;;
61897;SDS011;47850;50.274;18.908;2022-07-22T03:26:25;13.90;;;7.00;;
61897;SDS011;47850;50.274;18.908;2022-07-22T03:28:51;11.20;;;6.40;;
61897;SDS011;47850;50.274;18.908;2022-07-22T03:31:18;13.60;;;6.40;;
61897;SDS011;47850;50.274;18.908;2022-07-22T03:33:44;14.00;;;7.00;;
61897;SDS011;47850;50.274;18.908;2022-07-22T03:36:11;13.70;;;6.90;;
61897;SDS011;47850;50.274;18.908;2022-07-22T03:38:38;13.10;;;6.70;;
61897;SDS011;47850;50.274;18.908;2022-07-22T03:41:04;9.80;;;6.00;;
61897;SDS011;47850;50.274;18.908;2022-07-22T03:43:31;12.80;;;7.00;;
61897;SDS011;47850;50.274;18.908;2022-07-22T03:45:57;12.20;;;5.90;;
61897;SDS011;47850;50.274;18.908;2022-07-22T03:48:24;13.20;;;7.20;;
61897;SDS011;47850;50.274;18.908;2022-07-22T03:50:51;15.70;;;7.30;;
61897;SDS011;47850;50.274;18.908;2022-07-22T03:53:17;10.30;;;6.20;;
61897;SDS011;47850;50.274;18.908;2022-07-22T03:55:44;11.60;;;6.80;;
61897;SDS011;47850;50.274;18.908;2022-07-22T03:58:11;10.80;;;6.80;;
61897;SDS011;47850;50.274;18.908;2022-07-22T04:00:37;19.10;;;6.50;;
61897;SDS011;47850;50.274;18.908;2022-07-22T04:03:04;13.20;;;6.20;;
61897;SDS011;47850;50.274;18.908;2022-07-22T04:05:31;8.20;;;6.40;;
61897;SDS011;47850;50.274;18.908;2022-07-22T04:07:57;8.10;;;6.20;;
61897;SDS011;47850;50.274;18.908;2022-07-22T04:10:24;11.70;;;5.90;;
61897;SDS011;47850;50.274;18.908;2022-07-22T04:12:50;13.30;;;6.20;;
61897;SDS011;47850;50.274;18.908;2022-07-22T04:15:17;9.20;;;6.10;;
61897;SDS011;47850;50.274;18.908;2022-07-22T04:17:44;11.80;;;6.20;;
61897;SDS011;47850;50.274;18.908;2022-07-22T04:20:10;13.90;;;6.10;;
61897;SDS011;47850;50.274;18.908;2022-07-22T04:22:37;11.20;;;6.80;;
61897;SDS011;47850;50.274;18.908;2022-07-22T04:25:03;9.00;;;6.80;;
61897;SDS011;47850;50.274;18.908;2022-07-22T04:27:30;13.50;;;6.70;;
61897;SDS011;47850;50.274;18.908;2022-07-22T04:29:57;14.90;;;7.10;;
61897;SDS011;47850;50.274;18.908;2022-07-22T04:32:23;11.40;;;7.10;;
61897;SDS011;47850;50.274;18.908;2022-07-22T04:34:50;14.00;;;7.30;;
61897;SDS011;47850;50.274;18.908;2022-07-22T04:37:17;13.80;;;7.00;;
61897;SDS011;47850;50.274;18.908;2022-07-22T04:39:43;12.80;;;7.30;;
61897;SDS011;47850;50.274;18.908;2022-07-22T04:42:10;15.70;;;6.70;;
61897;SDS011;47850;50.274;18.908;2022-07-22T04:44:36;19.70;;;7.00;;
61897;SDS011;47850;50.274;18.908;2022-07-22T04:47:03;11.60;;;6.70;;
61897;SDS011;47850;50.274;18.908;2022-07-22T04:49:30;11.00;;;6.30;;
61897;SDS011;47850;50.274;18.908;2022-07-22T04:51:56;14.50;;;6.60;;
61897;SDS011;47850;50.274;18.908;2022-07-22T04:54:23;13.10;;;6.10;;
61897;SDS011;47850;50.274;18.908;2022-07-22T04:56:49;22.40;;;7.00;;
61897;SDS011;47850;50.274;18.908;2022-07-22T04:59:16;17.70;;;6.80;;
61897;SDS011;47850;50.274;18.908;2022-07-22T05:01:42;12.10;;;6.00;;
61897;SDS011;47850;50.274;18.908;2022-07-22T05:04:09;25.50;;;6.90;;
61897;SDS011;47850;50.274;18.908;2022-07-22T05:06:35;21.60;;;6.50;;
61897;SDS011;47850;50.274;18.908;2022-07-22T05:09:02;16.90;;;6.50;;
61897;SDS011;47850;50.274;18.908;2022-07-22T05:11:29;17.60;;;7.00;;
61897;SDS011;47850;50.274;18.908;2022-07-22T05:13:56;19.60;;;6.90;;
61897;SDS011;47850;50.274;18.908;2022-07-22T05:16:23;28.50;;;7.70;;
61897;SDS011;47850;50.274;18.908;2022-07-22T05:18:49;25.70;;;8.00;;
61897;SDS011;47850;50.274;18.908;2022-07-22T05:21:16;29.60;;;8.10;;
61897;SDS011;47850;50.274;18.908;2022-07-22T05:23:42;17.70;;;6.80;;
61897;SDS011;47850;50.274;18.908;2022-07-22T05:26:09;16.50;;;6.90;;
61897;SDS011;47850;50.274;18.908;2022-07-22T05:28:36;21.70;;;7.00;;
61897;SDS011;47850;50.274;18.908;2022-07-22T05:31:02;13.40;;;6.40;;
61897;SDS011;47850;50.274;18.908;2022-07-22T05:33:29;12.90;;;6.10;;
61897;SDS011;47850;50.274;18.908;2022-07-22T05:35:56;13.40;;;6.00;;
61897;SDS011;47850;50.274;18.908;2022-07-22T05:38:22;15.40;;;6.00;;
61897;SDS011;47850;50.274;18.908;2022-07-22T05:40:49;17.80;;;6.00;;
61897;SDS011;47850;50.274;18.908;2022-07-22T05:43:16;16.30;;;6.10;;
61897;SDS011;47850;50.274;18.908;2022-07-22T05:45:42;21.00;;;6.50;;
61897;SDS011;47850;50.274;18.908;2022-07-22T05:48:09;13.00;;;5.90;;
61897;SDS011;47850;50.274;18.908;2022-07-22T05:50:37;17.20;;;6.50;;
61897;SDS011;47850;50.274;18.908;2022-07-22T05:53:04;22.70;;;6.90;;
61897;SDS011;47850;50.274;18.908;2022-07-22T05:55:30;20.70;;;6.50;;
61897;SDS011;47850;50.274;18.908;2022-07-22T05:57:57;14.00;;;6.20;;
61897;SDS011;47850;50.274;18.908;2022-07-22T06:00:24;14.00;;;6.30;;
61897;SDS011;47850;50.274;18.908;2022-07-22T06:02:50;14.70;;;6.40;;
61897;SDS011;47850;50.274;18.908;2022-07-22T06:05:17;23.00;;;6.90;;
61897;SDS011;47850;50.274;18.908;2022-07-22T06:07:43;16.80;;;6.50;;
61897;SDS011;47850;50.274;18.908;2022-07-22T06:10:10;27.10;;;6.50;;
61897;SDS011;47850;50.274;18.908;2022-07-22T06:12:37;21.60;;;6.40;;
61897;SDS011;47850;50.274;18.908;2022-07-22T06:15:03;15.20;;;6.30;;
61897;SDS011;47850;50.274;18.908;2022-07-22T06:17:31;16.60;;;6.90;;
61897;SDS011;47850;50.274;18.908;2022-07-22T06:19:58;14.80;;;5.70;;
61897;SDS011;47850;50.274;18.908;2022-07-22T06:22:25;17.10;;;6.40;;
61897;SDS011;47850;50.274;18.908;2022-07-22T06:24:51;20.50;;;6.30;;
61897;SDS011;47850;50.274;18.908;2022-07-22T06:27:18;27.40;;;6.60;;
61897;SDS011;47850;50.274;18.908;2022-07-22T06:29:44;19.60;;;6.40;;
61897;SDS011;47850;50.274;18.908;2022-07-22T06:32:11;13.60;;;7.30;;
61897;SDS011;47850;50.274;18.908;2022-07-22T06:34:37;23.40;;;8.20;;
61897;SDS011;47850;50.274;18.908;2022-07-22T06:37:04;22.50;;;8.40;;
61897;SDS011;47850;50.274;18.908;2022-07-22T06:39:31;17.00;;;8.60;;
61897;SDS011;47850;50.274;18.908;2022-07-22T06:41:57;21.00;;;7.70;;
61897;SDS011;47850;50.274;18.908;2022-07-22T06:44:24;15.80;;;7.50;;
61897;SDS011;47850;50.274;18.908;2022-07-22T06:46:51;20.10;;;7.70;;
61897;SDS011;47850;50.274;18.908;2022-07-22T06:49:17;13.40;;;6.90;;
61897;SDS011;47850;50.274;18.908;2022-07-22T06:51:44;16.00;;;6.20;;
61897;SDS011;47850;50.274;18.908;2022-07-22T06:54:10;13.70;;;6.40;;
61897;SDS011;47850;50.274;18.908;2022-07-22T06:56:37;15.60;;;6.20;;
61897;SDS011;47850;50.274;18.908;2022-07-22T06:59:03;8.00;;;5.70;;
61897;SDS011;47850;50.274;18.908;2022-07-22T07:01:30;7.50;;;5.50;;
61897;SDS011;47850;50.274;18.908;2022-07-22T07:03:56;14.20;;;5.50;;
61897;SDS011;47850;50.274;18.908;2022-07-22T07:06:23;15.70;;;5.70;;
61897;SDS011;47850;50.274;18.908;2022-07-22T07:08:50;12.40;;;6.20;;
61897;SDS011;47850;50.274;18.908;2022-07-22T07:11:16;11.90;;;5.90;;
61897;SDS011;47850;50.274;18.908;2022-07-22T07:13:43;21.50;;;5.90;;
61897;SDS011;47850;50.274;18.908;2022-07-22T07:16:09;52.60;;;37.00;;
61897;SDS011;47850;50.274;18.908;2022-07-22T07:18:36;21.30;;;7.30;;
61897;SDS011;47850;50.274;18.908;2022-07-22T07:21:03;12.40;;;6.00;;
61897;SDS011;47850;50.274;18.908;2022-07-22T07:23:30;10.80;;;5.30;;
61897;SDS011;47850;50.274;18.908;2022-07-22T07:25:57;15.90;;;6.80;;
61897;SDS011;47850;50.274;18.908;2022-07-22T07:28:23;9.80;;;5.80;;
61897;SDS011;47850;50.274;18.908;2022-07-22T07:30:50;23.10;;;12.70;;
61897;SDS011;47850;50.274;18.908;2022-07-22T07:33:17;12.90;;;7.50;;
61897;SDS011;47850;50.274;18.908;2022-07-22T07:35:43;9.70;;;6.10;;
61897;SDS011;47850;50.274;18.908;2022-07-22T07:38:10;7.40;;;5.40;;
61897;SDS011;47850;50.274;18.908;2022-07-22T07:40:37;8.90;;;5.90;;
61897;SDS011;47850;50.274;18.908;2022-07-22T07:43:04;15.40;;;6.90;;
61897;SDS011;47850;50.274;18.908;2022-07-22T07:45:30;13.90;;;6.50;;
61897;SDS011;47850;50.274;18.908;2022-07-22T07:47:57;9.30;;;5.50;;
61897;SDS011;47850;50.274;18.908;2022-07-22T07:50:24;11.30;;;6.20;;
61897;SDS011;47850;50.274;18.908;2022-07-22T07:52:51;13.80;;;7.00;;
61897;SDS011;47850;50.274;18.908;2022-07-22T07:55:17;10.70;;;6.40;;
61897;SDS011;47850;50.274;18.908;2022-07-22T07:57:44;36.00;;;7.20;;
61897;SDS011;47850;50.274;18.908;2022-07-22T08:00:15;8.80;;;5.90;;
61897;SDS011;47850;50.274;18.908;2022-07-22T08:02:44;9.40;;;5.80;;
61897;SDS011;47850;50.274;18.908;2022-07-22T08:05:10;9.40;;;5.90;;
61897;SDS011;47850;50.274;18.908;2022-07-22T08:07:37;23.20;;;17.40;;
61897;SDS011;47850;50.274;18.908;2022-07-22T08:10:05;11.40;;;7.30;;
61897;SDS011;47850;50.274;18.908;2022-07-22T08:12:33;12.80;;;6.90;;
61897;SDS011;47850;50.274;18.908;2022-07-22T08:14:59;10.90;;;6.00;;
61897;SDS011;47850;50.274;18.908;2022-07-22T08:17:26;9.20;;;5.70;;
61897;SDS011;47850;50.274;18.908;2022-07-22T08:19:52;11.00;;;6.10;;
61897;SDS011;47850;50.274;18.908;2022-07-22T08:22:19;11.50;;;6.20;;
61897;SDS011;47850;50.274;18.908;2022-07-22T08:24:46;13.70;;;6.00;;
61897;SDS011;47850;50.274;18.908;2022-07-22T08:27:12;13.90;;;6.00;;
61897;SDS011;47850;50.274;18.908;2022-07-22T08:29:39;11.90;;;6.20;;
61897;SDS011;47850;50.274;18.908;2022-07-22T08:32:05;11.20;;;6.60;;
61897;SDS011;47850;50.274;18.908;2022-07-22T08:34:32;14.40;;;6.00;;
61897;SDS011;47850;50.274;18.908;2022-07-22T08:36:59;15.40;;;6.20;;
61897;SDS011;47850;50.274;18.908;2022-07-22T08:39:25;14.10;;;6.10;;
61897;SDS011;47850;50.274;18.908;2022-07-22T08:41:52;10.70;;;6.20;;
61897;SDS011;47850;50.274;18.908;2022-07-22T08:44:20;20.40;;;6.80;;
61897;SDS011;47850;50.274;18.908;2022-07-22T08:46:48;9.80;;;6.20;;
61897;SDS011;47850;50.274;18.908;2022-07-22T08:49:15;15.50;;;6.10;;
61897;SDS011;47850;50.274;18.908;2022-07-22T08:51:43;9.50;;;5.80;;
61897;SDS011;47850;50.274;18.908;2022-07-22T08:54:09;19.40;;;6.30;;
61897;SDS011;47850;50.274;18.908;2022-07-22T08:56:36;11.20;;;5.80;;
61897;SDS011;47850;50.274;18.908;2022-07-22T08:59:04;11.80;;;5.50;;
61897;SDS011;47850;50.274;18.908;2022-07-22T09:01:32;10.30;;;5.80;;
61897;SDS011;47850;50.274;18.908;2022-07-22T09:03:59;11.70;;;5.90;;
61897;SDS011;47850;50.274;18.908;2022-07-22T09:06:26;12.00;;;6.10;;
61897;SDS011;47850;50.274;18.908;2022-07-22T09:09:00;13.20;;;6.00;;
61897;SDS011;47850;50.274;18.908;2022-07-22T09:11:29;8.60;;;5.50;;
61897;SDS011;47850;50.274;18.908;2022-07-22T09:13:57;11.90;;;5.80;;
61897;SDS011;47850;50.274;18.908;2022-07-22T09:16:41;10.40;;;6.20;;
61897;SDS011;47850;50.274;18.908;2022-07-22T09:19:10;12.30;;;5.30;;
61897;SDS011;47850;50.274;18.908;2022-07-22T09:21:41;12.90;;;5.60;;
61897;SDS011;47850;50.274;18.908;2022-07-22T09:24:26;10.70;;;5.80;;
61897;SDS011;47850;50.274;18.908;2022-07-22T09:26:54;14.50;;;6.40;;
61897;SDS011;47850;50.274;18.908;2022-07-22T09:29:22;10.10;;;6.20;;
61897;SDS011;47850;50.274;18.908;2022-07-22T09:31:51;9.50;;;5.70;;
61897;SDS011;47850;50.274;18.908;2022-07-22T09:34:28;6.80;;;5.30;;
61897;SDS011;47850;50.274;18.908;2022-07-22T09:36:58;7.10;;;5.60;;
61897;SDS011;47850;50.274;18.908;2022-07-22T09:39:32;13.20;;;6.10;;
61897;SDS011;47850;50.274;18.908;2022-07-22T09:42:03;12.70;;;6.00;;
61897;SDS011;47850;50.274;18.908;2022-07-22T09:44:37;23.40;;;6.80;;
61897;SDS011;47850;50.274;18.908;2022-07-22T09:47:04;14.70;;;5.60;;
61897;SDS011;47850;50.274;18.908;2022-07-22T09:49:31;10.00;;;5.70;;
61897;SDS011;47850;50.274;18.908;2022-07-22T09:52:05;13.80;;;6.10;;
61897;SDS011;47850;50.274;18.908;2022-07-22T09:54:32;10.50;;;5.60;;
61897;SDS011;47850;50.274;18.908;2022-07-22T09:56:59;8.90;;;5.70;;
61897;SDS011;47850;50.274;18.908;2022-07-22T09:59:26;13.00;;;5.80;;
61897;SDS011;47850;50.274;18.908;2022-07-22T10:01:57;9.80;;;5.40;;
61897;SDS011;47850;50.274;18.908;2022-07-22T10:04:25;9.20;;;6.00;;
61897;SDS011;47850;50.274;18.908;2022-07-22T10:06:57;8.30;;;5.40;;
61897;SDS011;47850;50.274;18.908;2022-07-22T10:09:24;10.10;;;5.60;;
61897;SDS011;47850;50.274;18.908;2022-07-22T10:11:53;10.50;;;5.00;;
61897;SDS011;47850;50.274;18.908;2022-07-22T10:14:20;11.60;;;5.90;;
61897;SDS011;47850;50.274;18.908;2022-07-22T10:16:47;12.40;;;5.80;;
61897;SDS011;47850;50.274;18.908;2022-07-22T10:19:14;7.00;;;5.20;;
61897;SDS011;47850;50.274;18.908;2022-07-22T10:21:42;11.00;;;5.60;;
61897;SDS011;47850;50.274;18.908;2022-07-22T10:24:13;8.50;;;4.80;;
61897;SDS011;47850;50.274;18.908;2022-07-22T10:26:48;10.30;;;5.40;;
61897;SDS011;47850;50.274;18.908;2022-07-22T10:29:32;9.60;;;5.90;;
61897;SDS011;47850;50.274;18.908;2022-07-22T10:35:18;13.20;;;5.10;;
61897;SDS011;47850;50.274;18.908;2022-07-22T10:37:36;8.90;;;4.60;;
61897;SDS011;47850;50.274;18.908;2022-07-22T10:40:11;10.20;;;4.50;;
61897;SDS011;47850;50.274;18.908;2022-07-22T10:45:32;8.40;;;5.80;;
61897;SDS011;47850;50.274;18.908;2022-07-22T10:48:04;10.40;;;5.20;;
61897;SDS011;47850;50.274;18.908;2022-07-22T10:53:05;7.30;;;4.70;;
61897;SDS011;47850;50.274;18.908;2022-07-22T10:58:42;8.20;;;5.30;;
61897;SDS011;47850;50.274;18.908;2022-07-22T11:01:12;7.50;;;5.10;;
61897;SDS011;47850;50.274;18.908;2022-07-22T11:03:41;6.20;;;5.30;;
61897;SDS011;47850;50.274;18.908;2022-07-22T11:06:23;12.60;;;5.30;;
61897;SDS011;47850;50.274;18.908;2022-07-22T11:08:52;9.60;;;5.40;;
61897;SDS011;47850;50.274;18.908;2022-07-22T11:11:43;10.20;;;5.60;;
61897;SDS011;47850;50.274;18.908;2022-07-22T11:14:16;8.70;;;4.70;;
61897;SDS011;47850;50.274;18.908;2022-07-22T11:16:55;9.90;;;5.00;;
61897;SDS011;47850;50.274;18.908;2022-07-22T11:19:25;11.60;;;5.00;;
61897;SDS011;47850;50.274;18.908;2022-07-22T11:21:56;9.40;;;4.90;;
61897;SDS011;47850;50.274;18.908;2022-07-22T11:24:25;9.50;;;4.70;;
61897;SDS011;47850;50.274;18.908;2022-07-22T11:26:52;12.00;;;4.60;;
61897;SDS011;47850;50.274;18.908;2022-07-22T11:32:01;7.20;;;5.00;;
61897;SDS011;47850;50.274;18.908;2022-07-22T11:34:29;6.90;;;4.20;;
61897;SDS011;47850;50.274;18.908;2022-07-22T11:36:57;12.20;;;4.90;;
61897;SDS011;47850;50.274;18.908;2022-07-22T11:39:25;6.30;;;4.20;;
61897;SDS011;47850;50.274;18.908;2022-07-22T11:41:55;10.20;;;4.60;;
61897;SDS011;47850;50.274;18.908;2022-07-22T11:44:24;8.60;;;4.80;;
61897;SDS011;47850;50.274;18.908;2022-07-22T11:46:55;9.60;;;4.50;;
61897;SDS011;47850;50.274;18.908;2022-07-22T11:49:26;9.20;;;4.50;;
61897;SDS011;47850;50.274;18.908;2022-07-22T11:51:54;5.70;;;4.30;;
61897;SDS011;47850;50.274;18.908;2022-07-22T11:54:21;9.40;;;4.80;;
61897;SDS011;47850;50.274;18.908;2022-07-22T11:56:48;12.00;;;4.70;;
61897;SDS011;47850;50.274;18.908;2022-07-22T11:59:15;7.10;;;4.60;;
61897;SDS011;47850;50.274;18.908;2022-07-22T12:01:44;10.70;;;5.00;;
61897;SDS011;47850;50.274;18.908;2022-07-22T12:04:14;5.10;;;4.00;;
61897;SDS011;47850;50.274;18.908;2022-07-22T12:06:45;8.00;;;4.90;;
61897;SDS011;47850;50.274;18.908;2022-07-22T12:09:14;8.80;;;4.70;;
61897;SDS011;47850;50.274;18.908;2022-07-22T12:11:50;9.20;;;4.70;;
61897;SDS011;47850;50.274;18.908;2022-07-22T12:14:20;7.90;;;5.30;;
61897;SDS011;47850;50.274;18.908;2022-07-22T12:16:57;9.80;;;4.80;;
61897;SDS011;47850;50.274;18.908;2022-07-22T12:19:30;6.60;;;4.40;;
61897;SDS011;47850;50.274;18.908;2022-07-22T12:22:05;10.10;;;4.50;;
61897;SDS011;47850;50.274;18.908;2022-07-22T12:24:37;6.00;;;4.50;;
61897;SDS011;47850;50.274;18.908;2022-07-22T12:27:12;11.20;;;4.90;;
61897;SDS011;47850;50.274;18.908;2022-07-22T12:32:24;7.30;;;4.70;;
61897;SDS011;47850;50.274;18.908;2022-07-22T12:42:36;8.80;;;5.30;;
61897;SDS011;47850;50.274;18.908;2022-07-22T12:45:09;6.10;;;4.40;;
61897;SDS011;47850;50.274;18.908;2022-07-22T12:48:27;16.60;;;5.10;;
61897;SDS011;47850;50.274;18.908;2022-07-22T12:50:28;10.20;;;4.90;;
61897;SDS011;47850;50.274;18.908;2022-07-22T12:52:59;11.60;;;4.90;;
61897;SDS011;47850;50.274;18.908;2022-07-22T12:55:29;7.10;;;4.70;;
61897;SDS011;47850;50.274;18.908;2022-07-22T12:57:56;6.50;;;4.90;;
61897;SDS011;47850;50.274;18.908;2022-07-22T13:00:26;11.00;;;4.80;;
61897;SDS011;47850;50.274;18.908;2022-07-22T13:02:55;6.40;;;4.70;;
61897;SDS011;47850;50.274;18.908;2022-07-22T13:05:23;13.10;;;4.90;;
61897;SDS011;47850;50.274;18.908;2022-07-22T13:07:51;10.00;;;4.70;;
61897;SDS011;47850;50.274;18.908;2022-07-22T13:10:22;14.80;;;4.70;;
61897;SDS011;47850;50.274;18.908;2022-07-22T13:15:17;8.70;;;4.90;;
61897;SDS011;47850;50.274;18.908;2022-07-22T13:17:45;11.40;;;4.60;;
61897;SDS011;47850;50.274;18.908;2022-07-22T13:20:13;12.10;;;4.50;;
61897;SDS011;47850;50.274;18.908;2022-07-22T13:22:46;13.60;;;5.10;;
61897;SDS011;47850;50.274;18.908;2022-07-22T13:25:13;9.00;;;4.30;;
61897;SDS011;47850;50.274;18.908;2022-07-22T13:27:40;9.20;;;4.70;;
61897;SDS011;47850;50.274;18.908;2022-07-22T13:30:07;7.10;;;5.20;;
61897;SDS011;47850;50.274;18.908;2022-07-22T13:32:34;8.50;;;5.60;;
61897;SDS011;47850;50.274;18.908;2022-07-22T13:35:01;10.60;;;4.80;;
61897;SDS011;47850;50.274;18.908;2022-07-22T13:37:28;8.90;;;4.90;;
61897;SDS011;47850;50.274;18.908;2022-07-22T13:39:55;11.50;;;4.80;;
61897;SDS011;47850;50.274;18.908;2022-07-22T13:42:21;13.20;;;4.80;;
61897;SDS011;47850;50.274;18.908;2022-07-22T13:44:48;11.60;;;5.00;;
61897;SDS011;47850;50.274;18.908;2022-07-22T13:47:17;9.10;;;5.20;;
61897;SDS011;47850;50.274;18.908;2022-07-22T13:49:44;6.50;;;4.70;;
61897;SDS011;47850;50.274;18.908;2022-07-22T13:54:39;7.90;;;4.30;;
61897;SDS011;47850;50.274;18.908;2022-07-22T13:57:06;6.70;;;4.50;;
61897;SDS011;47850;50.274;18.908;2022-07-22T13:59:33;10.60;;;5.00;;
61897;SDS011;47850;50.274;18.908;2022-07-22T14:02:00;6.40;;;4.60;;
61897;SDS011;47850;50.274;18.908;2022-07-22T14:04:27;7.70;;;4.40;;
61897;SDS011;47850;50.274;18.908;2022-07-22T14:06:54;7.20;;;4.70;;
61897;SDS011;47850;50.274;18.908;2022-07-22T14:09:21;7.70;;;4.60;;
61897;SDS011;47850;50.274;18.908;2022-07-22T14:11:47;24.60;;;4.40;;
61897;SDS011;47850;50.274;18.908;2022-07-22T14:14:14;8.00;;;4.30;;
61897;SDS011;47850;50.274;18.908;2022-07-22T14:16:40;9.20;;;5.20;;
61897;SDS011;47850;50.274;18.908;2022-07-22T14:19:09;12.60;;;4.30;;
61897;SDS011;47850;50.274;18.908;2022-07-22T14:21:39;10.10;;;4.90;;
61897;SDS011;47850;50.274;18.908;2022-07-22T14:24:07;7.00;;;4.50;;
61897;SDS011;47850;50.274;18.908;2022-07-22T14:26:35;12.50;;;4.80;;
61897;SDS011;47850;50.274;18.908;2022-07-22T14:29:03;11.30;;;4.90;;
61897;SDS011;47850;50.274;18.908;2022-07-22T14:31:31;14.10;;;4.70;;
61897;SDS011;47850;50.274;18.908;2022-07-22T14:33:59;7.30;;;4.10;;
61897;SDS011;47850;50.274;18.908;2022-07-22T14:36:26;10.10;;;4.40;;
61897;SDS011;47850;50.274;18.908;2022-07-22T14:38:53;9.00;;;4.10;;
61897;SDS011;47850;50.274;18.908;2022-07-22T14:41:20;5.90;;;4.50;;
61897;SDS011;47850;50.274;18.908;2022-07-22T14:43:47;10.60;;;4.50;;
61897;SDS011;47850;50.274;18.908;2022-07-22T14:46:15;7.10;;;3.40;;
61897;SDS011;47850;50.274;18.908;2022-07-22T14:48:42;9.20;;;4.00;;
61897;SDS011;47850;50.274;18.908;2022-07-22T14:51:09;7.60;;;3.80;;
61897;SDS011;47850;50.274;18.908;2022-07-22T14:53:36;7.60;;;3.90;;
61897;SDS011;47850;50.274;18.908;2022-07-22T14:56:03;9.70;;;4.00;;